Baktiyor Tagybergen

Scout - Aktobe
10 Dec 2028
Sunday
Process

Personality

Adaptability (19) Ambition (5) Controversy (2) Loyalty (9) Pressure (12) Professionalism (11) Sportsmanship (18) Temperament (7)

Profile

Coaching Style Democratic
License Continental B
Determination 5
Man Management 6
Motivating 7
Discipline 4
Job Satisfaction
100%
Fatigue
0%
Role Scout
Wage 26.8K p/w
Contract 14.03.2029

Performance

Behaviour Good
Training Effectiveness
34%
Player Development
25%
Injury Prevention
25%
Tactical Implementation
50%

Recent Events

Attended a recruitment meeting now
Recommended a transfer target now
Recommended a transfer target now
Attended a recruitment meeting 7d ago
Recommended a transfer target 7d ago
Recommended a transfer target 7d ago
Recommended a transfer target 7d ago
Recommended a transfer target 7d ago

Currently Monitoring

137
Player Club Status Ability Confidence Watched Last Observed Latest Vote
Oralkhan Ömirtaev Okzhetpes Active 99 / 94 76% 1 03.07.2028 Approve
Nūrğaini Böribaev Okzhetpes Rejected 98 / 98 75% 2 / 1m 21.06.2028 -
Askhat Suyumbayev Zhetysu Active 91 / 91 30% 1 / 1m 21.06.2028 -
Olzhas Baibek Kairat Active 102 / 94 76% 1 15.06.2028 Approve
Amine Talal Tobol Active 111 / 97 72% 1 07.02.2028 Approve
Vladislav Sarveli Nizhniy Novgorod Active 116 / 116 40% 9 19.01.2028 -
Everton Moraes Shakhter Active 106 / 119 40% 2 19.01.2028 -
Anton Betyuzhnov Dinamo Vologda Active 77 / 69 40% 1 18.01.2028 -
Dmitry Kamenschikov Chernomorets Active 97 / 95 40% 1 18.01.2028 -
Magomed Nasibov Pobeda Active 90 / 92 40% 5 17.01.2028 -
Juan David Rueda Alianza Petrolera Active 114 / 96 40% 5 17.01.2028 -
Matija Popović Fakel Active 115 / 104 40% 1 16.01.2028 -
Merabi Uridia Fakel Active 100 / 88 40% 12 15.01.2028 -
Ilya Tishurov Osipovichi Active 73 / 72 40% 4 15.01.2028 -
Omar Popov Dinamo St Petersburg Active 86 / 95 40% 1 15.01.2028 -
Maxim Maximov Slavia Mozyr Active 96 / 98 40% 6 14.01.2028 -
Kirill Tsepenkov Dnepr Mogilev Active 96 / 110 40% 1 12.01.2028 -
Pavel Savitskiy Neman Active 102 / 97 40% 1 12.01.2028 -
Nikita Simdyankin KDV Tomsk Active 87 / 94 40% 3 11.01.2028 -
Kirill Cheburakov Rostov Active 77 / 92 40% 2 11.01.2028 -
Maxim Kutovoy Salyut Active 81 / 94 40% 6 10.01.2028 -
Vladislav Fedosov Slutsk Active 80 / 78 40% 3 10.01.2028 -
Alexander Jeremejeff Persija Active 119 / 107 40% 8 06.01.2028 -
Milan Ristovski Bhayangkara Presisi Active 111 / 107 40% 8 06.01.2028 -
Ilja Safronov Rotor Active 107 / 107 40% 6 05.01.2028 -
Alexey Antilevskiy Slavia Mozyr Active 88 / 98 40% 8 05.01.2028 -
Gamid Agalarov Orenburg Active 116 / 126 40% 2 04.01.2028 -
Razhab Magomedov Dinamo Makhachkala Active 110 / 105 40% 1 04.01.2028 -
Aleksej Golijanin Sokol Active 94 / 102 40% 4 02.01.2028 -
Surkhaikhan Abdullaev KAMAZ Active 90 / 88 40% 3 01.01.2028 -
Martin Sekulić Ural Active 109 / 109 40% 15 29.12.2027 -
Karen Vardanyan Dinamo Minsk Active 92 / 95 40% 5 27.12.2027 -
Sergio Castel Persik Active 119 / 120 40% 8 23.12.2027 -
Uroš Kojić AGMK Active 98 / 103 40% 7 23.12.2027 -
Fortune Bassey Bunyodkor Active 99 / 95 40% 6 21.12.2027 -
Daouda Natama Minsk Active 93 / 86 40% 6 20.12.2027 -
Riquelme Madura United Active 109 / 109 40% 4 20.12.2027 -
Steven Alfred Torpedo-BelAZ Active 106 / 90 40% 6 18.12.2027 -
Toma Tabatadze Kokand 1912 Active 98 / 96 40% 5 18.12.2027 -
Imeda Ashortia Andijon Active 103 / 108 40% 3 17.12.2027 -
Roman Paparyga Qizilqum Active 99 / 101 40% 5 16.12.2027 -
Uilliam Barros Persib Active 111 / 97 40% 2 16.12.2027 -
Aziz Xolmurodov AGMK Active 104 / 104 40% 2 15.12.2027 -
Zoran Marušić Neftchi Active 115 / 102 40% 2 15.12.2027 -
Shohnazar Norbekov Mashal Active 94 / 87 40% 5 10.12.2027 -
Asadbek Jo'raboyev Bukhara Active 93 / 97 40% 5 09.12.2027 -
Andrey Solovey Slavia Mozyr Active 98 / 101 40% 4 06.12.2027 -
Vlatko Stojanovski Mashal Active 101 / 100 40% 4 05.12.2027 -
Luka Đorđević Sogdiana Active 104 / 91 40% 2 29.11.2027 -
Ljupce Doriev Sogdiana Active 112 / 102 40% 1 28.11.2027 -
Martin Boakye Andijon Active 114 / 102 40% 1 26.11.2027 -
Sergey Pushnyakov Neman Active 89 / 95 40% 3 22.11.2027 -
Dominik Begić Bukhara Active 95 / 90 40% 2 22.11.2027 -
Diego Valencia Astana Active 113 / 119 40% 1 22.11.2027 -
Diego Campos Bali United Active 109 / 102 40% 3 19.11.2027 -
Amir Nematov Obod Active 96 / 95 40% 2 17.11.2027 -
Nuriddin Nuriddinov Mashal Active 93 / 78 40% 1 10.11.2027 -
Timur Masharipov Obod Active 87 / 89 40% 6 06.11.2027 -
Andrew Jung Persib Active 103 / 99 40% 2 31.10.2027 -
Igor Monich Naftan Active 73 / 70 40% 2 31.10.2027 -
Rubin Hebaj Tobol Active 120 / 106 40% 1 26.10.2027 -
Bobur Abdiholiqov Nasaf Active 106 / 106 40% 1 23.10.2027 -
Gustavo Viera Cerro Largo Active 107 / 105 40% 2 19.10.2027 -
Luka Čumić PSM Active 97 / 91 40% 1 19.10.2027 -
Mauro Valiente Estudiantes Active 118 / 112 40% 1 17.10.2027 -
Izzatullo Abdulhaqov Mashal Active 82 / 94 40% 2 14.10.2027 -
Adrián Dalmau PSIM Active 101 / 112 40% 1 12.10.2027 -
Júnior Brandão Madura United Active 105 / 114 40% 3 08.10.2027 -
Oleksiy Shchebetun Qizilqum Active 101 / 88 40% 1 02.10.2027 -
Valdeci Arema Active 106 / 98 40% 1 30.09.2027 -
Denis M. Kovalevich Dinamo Brest Active 109 / 86 40% 1 19.09.2027 -
Evgeniy Shevchenko Slavia Mozyr Active 89 / 92 40% 1 18.09.2027 -
Hleb Shikavka Lokomotiv Gomel Active 72 / 76 40% 1 17.09.2027 -
Daniil Kulikov Belshina Active 83 / 80 40% 1 16.09.2027 -
Nikita Golub Belshina Active 80 / 72 40% 1 10.09.2027 -
Valeriy Gorbachik Arsenal Dzerzhinsk Active 95 / 76 40% 1 09.09.2027 -
Jort van der Sande Bali United Active 110 / 112 40% 1 08.09.2027 -
Ayman Sellouf Ordabasy Active 96 / 89 40% 1 31.08.2027 -
Dmitriy Vashkevich Dinamo Brest Active 75 / 77 40% 1 27.08.2027 -
Suleiman Abdullahi Atyrau Active 103 / 106 40% 2 21.08.2027 -
Egor Yuschenko Lida Active 78 / 78 40% 1 21.08.2027 -
Danilo Santacruz Madura United Active 109 / 109 40% 1 17.08.2027 -
Léo Natel Ordabasy Active 116 / 111 40% 2 16.08.2027 -
Roman Gribovskiy Active 83 / 94 40% 1 14.08.2027 -
Edmilson Kairat Active 119 / 114 40% 1 14.08.2027 -
Jesse Akila Taraz Active 111 / 109 40% 1 26.07.2027 -
Léo Baptistão Almería Active 126 / 145 40% 1 24.07.2027 -
Alexandr Butko Isloch Active 85 / 75 40% 1 19.07.2027 -
Sergey Gaiduk Salyut Active 72 / 71 40% 2 15.07.2027 -
Kamran Aliev SKA Khabarovsk Active 99 / 114 40% 5 14.07.2027 -
Vitaly Dunay (Karpenko) Chaika Active 93 / 82 40% 3 14.07.2027 -
Chinonso Offor Baltika Active 105 / 117 40% 2 12.07.2027 -
Nikita Kireev Dinamo Vologda Active 95 / 77 40% 5 12.07.2027 -
Dmitry Kuptsov Spartak Tambov Active 72 / 90 40% 2 12.07.2027 -
Nikolay Maximov Krylya Sovetov Active 88 / 58 40% 2 10.07.2027 -
Alexey Skvortsov Active 84 / 87 40% 3 08.07.2027 -
Alexandr Yushin Torpedo Moscow Active 102 / 96 40% 2 08.07.2027 -
Amar Rahmanović Krylya Sovetov Active 107 / 104 40% 3 07.07.2027 -
Jacobo Alcalde SKA Khabarovsk Active 106 / 94 40% 2 05.07.2027 -
Georgy Melkadze Akhmat Grozny Active 122 / 120 40% 7 03.07.2027 -
David Karaev KAMAZ Active 104 / 113 40% 4 03.07.2027 -
Andrey Okladnikov Yenisey Active 90 / 94 40% 5 27.06.2027 -
Denis Rubanov Dinamo Stavropol Active 94 / 79 40% 2 27.06.2027 -
Serder Serderov Dinamo Makhachkala Active 94 / 90 40% 5 26.06.2027 -
Ruslan Apekov Torpedo Moscow Active 100 / 87 40% 5 25.06.2027 -
Yordy Reyna Rodina Active 118 / 121 40% 3 25.06.2027 -
Víctor Guzmán Sporting CP Active 93 / 114 40% 1 24.06.2027 -
François Kamano Sochi Active 114 / 119 40% 2 23.06.2027 -
Vladimir Khubulov Dinamo Makhachkala Active 102 / 119 40% 4 22.06.2027 -
Mikhail Gainov Dinamo Stavropol Active 96 / 70 40% 1 22.06.2027 -
Evgeny Voronin Volga Active 87 / 76 40% 1 22.06.2027 -
Serikzhan Muzhikov Active 98 / 111 65% 1 18.06.2027 Approve
Stanislav Biblyk Chaika Active 84 / 103 40% 5 17.06.2027 -
Vasiliy Sovpel Okzhetpes Rejected 97 / 101 65% 1 17.06.2027 -
Amur Kalmykov Spartak Kostroma Active 100 / 92 40% 3 10.06.2027 -
Said Aliev Rotor Active 92 / 95 40% 4 08.06.2027 -
Rashid Magomedov Neftekhimik Active 84 / 93 40% 5 02.06.2027 -
Alexandre Jesus Orenburg Active 106 / 95 40% 1 31.05.2027 -
Alexandr Saplinov Volga Active 103 / 88 40% 3 30.05.2027 -
Migran Ageyan Ufa Active 90 / 95 40% 3 27.05.2027 -
Daniil Agureev Amkar Active 91 / 88 40% 3 27.05.2027 -
Gevork Sarkisyan Saturn Active 92 / 73 40% 4 14.05.2027 -
Vladislav Yakovlev Volga Active 88 / 86 40% 1 05.05.2027 -
Ilja Gruznov Khimik Active 100 / 74 40% 1 02.05.2027 -
Alexandr Shlenkin Dinamo Bryansk Active 85 / 80 40% 4 30.04.2027 -
Sergey Gribov Dinamo Bryansk Active 78 / 85 40% 2 15.04.2027 -
Daniil Kondrakov KDV Tomsk Active 92 / 97 40% 1 15.04.2027 -
Gedeon Guzina Orenburg Active 98 / 117 40% 1 12.04.2027 -
Rizvan Umarov Dinamo St Petersburg Active 69 / 93 40% 1 10.04.2027 -
Danil Akhatov Ufa Active 86 / 75 40% 1 07.04.2027 -
Alexey Kashtanov Torpedo Moscow Active 93 / 98 40% 1 23.03.2027 -
Daniil Arsentjev Orel Active 66 / 82 40% 1 22.03.2027 -
Oralkhan Ömirtaev Okzhetpes Rejected 110 / 106 65% 1 22.02.2027 Approve
Abylaikhan Zhūmabek Atyrau Rejected 107 / 111 65% 1 30.01.2027 -
Koffi Kouao Neftchi Active 126 / 129 40% 1 01.08.2026 -
Zafarmurod Abdurahmatov Nasaf Active 109 / 117 40% 1 01.08.2026 -
Amine Benchaib Kauno Zalgiris Active 116 / 92 40% 1 01.08.2026 -